Time;durP1;ratioP1;P1;durP2;ratioP2;P2;SDS_P1;SDS_P2;PMS_P1;PMS_P2;Temp;Humidity;BMP_temperature;BMP_pressure;BME280_temperature;BME280_humidity;BME280_pressure;Samples;Min_cycle;Max_cycle;Signal;HPM_P1;HPM_P2
2021/12/14 00:00:47;;;;;;;6.18;3.70;;;;;;;10.10;72.24;102644.50;5063185;28;20048;-62
2021/12/14 00:03:17;;;;;;;6.40;3.30;;;;;;;10.13;72.32;102646.84;5063446;28;20037;-62
2021/12/14 00:05:46;;;;;;;5.25;3.63;;;;;;;10.11;72.29;102643.50;5063711;28;20113;-61
2021/12/14 00:08:15;;;;;;;5.80;3.40;;;;;;;10.11;72.06;102638.94;5065175;28;20044;-62
2021/12/14 00:11:09;;;;;;;4.80;3.30;;;;;;;10.10;72.21;102637.28;5078433;28;20091;-60
2021/12/14 00:13:51;;;;;;;5.00;3.15;;;;;;;10.11;72.61;102638.94;5062971;28;20191;-62
2021/12/14 00:16:20;;;;;;;3.67;3.05;;;;;;;10.11;72.47;102636.25;5064245;28;20189;-62
2021/12/14 00:18:48;;;;;;;6.53;3.13;;;;;;;10.12;72.58;102639.78;5063416;28;20056;-62
2021/12/14 00:21:24;;;;;;;5.13;3.13;;;;;;;10.12;72.44;102639.78;5062911;28;20083;-63
2021/12/14 00:24:09;;;;;;;5.72;3.80;;;;;;;10.10;72.44;102639.13;5068924;28;20531;-62
2021/12/14 00:26:40;;;;;;;5.15;3.88;;;;;;;10.11;72.21;102638.94;5050437;28;20044;-62
2021/12/14 00:29:13;;;;;;;7.38;3.72;;;;;;;10.10;72.64;102652.56;5066641;28;20052;-59
2021/12/14 00:31:42;;;;;;;6.47;3.33;;;;;;;10.10;72.73;102641.81;5062026;28;20045;-62
2021/12/14 00:34:10;;;;;;;4.38;3.28;;;;;;;10.08;72.61;102638.47;5065016;28;20053;-62
2021/12/14 00:36:39;;;;;;;5.57;3.97;;;;;;;10.08;72.99;102641.16;5062744;28;20049;-62
2021/12/14 00:39:09;;;;;;;5.93;3.58;;;;;;;10.08;72.94;102633.94;5063195;28;20156;-62
2021/12/14 00:41:40;;;;;;;5.65;4.03;;;;;;;10.07;72.38;102652.91;5062335;28;20048;-63
2021/12/14 00:44:09;;;;;;;4.60;3.22;;;;;;;10.05;72.62;102645.03;5063608;28;20049;-61
2021/12/14 00:46:38;;;;;;;5.38;3.67;;;;;;;10.06;72.84;102643.19;5061572;28;20052;-62
2021/12/14 00:49:09;;;;;;;5.93;3.90;;;;;;;10.05;72.83;102649.56;5055325;28;20108;-61
2021/12/14 00:51:37;;;;;;;5.90;3.50;;;;;;;10.04;72.77;102659.47;5062915;28;20041;-62
2021/12/14 00:54:10;;;;;;;5.75;3.65;;;;;;;10.04;72.77;102655.94;5063011;28;20048;-62
2021/12/14 00:56:38;;;;;;;6.13;4.30;;;;;;;10.04;73.06;102670.22;5072289;28;20376;-62
2021/12/14 00:59:08;;;;;;;7.22;4.88;;;;;;;10.03;72.99;102668.53;5063260;28;20167;-61
2021/12/14 01:01:41;;;;;;;6.68;4.15;;;;;;;10.03;72.39;102673.06;5061470;28;20126;-57
2021/12/14 01:04:16;;;;;;;7.20;4.13;;;;;;;10.03;72.63;102683.81;5053712;28;20061;-61
2021/12/14 01:06:46;;;;;;;5.22;4.28;;;;;;;10.02;72.65;102672.22;5062865;28;20069;-61
2021/12/14 01:09:18;;;;;;;5.32;4.15;;;;;;;10.02;72.91;102682.97;5064501;28;20044;-61
2021/12/14 01:11:47;;;;;;;5.53;4.22;;;;;;;10.01;72.80;102664.34;5063578;28;20657;-62
2021/12/14 01:14:23;;;;;;;5.30;3.92;;;;;;;10.00;72.84;102670.72;5062880;28;20132;-62
2021/12/14 01:17:07;;;;;;;7.20;4.10;;;;;;;10.00;72.76;102668.88;5061613;28;20060;-61
2021/12/14 01:19:39;;;;;;;8.13;4.88;;;;;;;9.99;72.53;102656.47;5051403;28;20056;-62
2021/12/14 01:22:20;;;;;;;5.70;4.13;;;;;;;9.99;73.11;102650.25;5062828;28;20171;-62
2021/12/14 01:25:02;;;;;;;5.93;4.18;;;;;;;9.99;72.99;102652.94;5063193;28;20045;-62
2021/12/14 01:27:35;;;;;;;7.38;4.43;;;;;;;9.97;73.00;102663.03;5068697;28;20048;-61
2021/12/14 01:30:08;;;;;;;6.43;3.97;;;;;;;9.98;72.55;102659.31;5065822;28;20084;-62
2021/12/14 01:32:40;;;;;;;7.80;4.20;;;;;;;9.98;72.96;102653.94;5074291;28;20098;-60
2021/12/14 01:35:13;;;;;;;5.53;3.78;;;;;;;9.98;72.79;102643.22;5068385;28;20431;-62
2021/12/14 01:37:48;;;;;;;6.47;4.55;;;;;;;9.98;73.25;102640.53;5069026;28;20053;-62
2021/12/14 01:40:46;;;;;;;7.63;4.15;;;;;;;9.98;72.89;102649.41;5070387;28;20084;-62
2021/12/14 01:43:08;;;;;;;6.10;4.35;;;;;;;9.98;72.79;102649.41;5062664;28;20053;-62
2021/12/14 01:45:37;;;;;;;6.50;4.20;;;;;;;9.97;72.63;102631.63;5075863;28;20079;-62
2021/12/14 01:48:05;;;;;;;5.35;3.72;;;;;;;9.97;73.00;102637.00;5067917;28;20084;-62
2021/12/14 01:50:38;;;;;;;4.78;3.70;;;;;;;9.96;72.62;102643.38;5057426;28;20450;-62
2021/12/14 01:53:06;;;;;;;5.25;3.80;;;;;;;9.97;72.97;102649.59;5065852;28;20489;-59
2021/12/14 01:55:37;;;;;;;6.85;3.83;;;;;;;9.96;73.17;102640.69;5053262;28;20091;-61
2021/12/14 01:58:08;;;;;;;5.90;3.83;;;;;;;9.96;72.77;102642.53;5078138;28;20048;-62
2021/12/14 02:00:41;;;;;;;7.85;4.60;;;;;;;9.97;72.71;102644.22;5077182;28;20079;-61
2021/12/14 02:03:12;;;;;;;5.20;3.50;;;;;;;9.95;73.03;102632.81;5065978;28;20088;-62
2021/12/14 02:05:44;;;;;;;4.60;3.20;;;;;;;9.97;72.75;102625.41;5069583;28;20041;-61
2021/12/14 02:08:19;;;;;;;6.05;3.70;;;;;;;9.95;72.52;102624.75;5069713;28;20438;-62
2021/12/14 02:10:47;;;;;;;4.70;3.42;;;;;;;9.86;72.89;102609.69;5073628;28;20091;-59
2021/12/14 02:13:23;;;;;;;4.78;3.63;;;;;;;9.94;72.82;102620.41;5067400;28;20483;-62
2021/12/14 02:15:51;;;;;;;4.72;3.40;;;;;;;9.93;72.87;102602.59;5070782;28;20041;-62
2021/12/14 02:18:23;;;;;;;5.05;3.20;;;;;;;9.92;73.10;102603.63;5064804;28;20076;-61
2021/12/14 02:20:56;;;;;;;6.20;3.47;;;;;;;9.93;72.90;102610.66;5067679;28;20052;-62
2021/12/14 02:23:25;;;;;;;5.03;3.53;;;;;;;9.91;72.77;102596.56;5059646;28;20084;-62
2021/12/14 02:25:54;;;;;;;6.85;3.55;;;;;;;9.91;72.98;102615.38;5065239;28;20046;-60
2021/12/14 02:28:23;;;;;;;5.00;3.25;;;;;;;9.90;72.69;102595.72;5063527;28;20477;-62
2021/12/14 02:30:53;;;;;;;4.88;3.17;;;;;;;9.91;72.47;102596.56;5056937;28;20081;-62
2021/12/14 02:33:25;;;;;;;4.75;3.30;;;;;;;9.90;72.44;102600.28;5065135;28;20049;-62
2021/12/14 02:35:55;;;;;;;4.72;3.40;;;;;;;9.90;72.84;102595.72;5065078;28;20041;-62
2021/12/14 02:38:25;;;;;;;4.30;3.13;;;;;;;9.89;72.18;102591.38;5064753;28;20091;-62
2021/12/14 02:40:57;;;;;;;4.68;3.67;;;;;;;9.89;72.25;102599.44;5058534;28;20048;-62
2021/12/14 02:43:30;;;;;;;5.30;3.63;;;;;;;9.88;72.61;102594.22;5064491;28;20076;-62
2021/12/14 02:46:05;;;;;;;5.00;3.47;;;;;;;9.88;72.52;102608.50;5062731;28;20051;-60
2021/12/14 02:48:33;;;;;;;4.70;3.50;;;;;;;9.88;72.60;102621.09;5058665;28;20116;-60
2021/12/14 02:51:12;;;;;;;5.55;3.33;;;;;;;9.87;72.44;102614.88;5065621;28;20414;-62
2021/12/14 02:53:42;;;;;;;5.43;3.50;;;;;;;9.87;72.44;102617.56;5064224;28;20056;-62
2021/12/14 02:56:14;;;;;;;5.57;3.55;;;;;;;9.87;72.84;102622.09;5052441;28;20037;-62
2021/12/14 02:58:43;;;;;;;5.40;3.35;;;;;;;9.85;72.43;102622.28;5064019;28;20041;-62
2021/12/14 03:01:13;;;;;;;5.82;3.65;;;;;;;9.86;72.48;102615.88;5064146;28;20045;-62
2021/12/14 03:03:42;;;;;;;6.28;3.63;;;;;;;9.85;72.50;102619.59;5060002;28;20447;-62
2021/12/14 03:06:18;;;;;;;4.38;3.10;;;;;;;9.85;72.56;102608.00;5062939;28;20407;-61
2021/12/14 03:08:56;;;;;;;5.28;3.30;;;;;;;9.84;72.72;102601.81;5062893;28;20076;-62
2021/12/14 03:11:26;;;;;;;5.72;3.10;;;;;;;9.84;72.80;102592.91;5063376;28;20084;-62
2021/12/14 03:13:54;;;;;;;5.30;3.42;;;;;;;9.83;72.48;102585.88;5064282;28;20131;-61
2021/12/14 03:16:25;;;;;;;4.88;3.30;;;;;;;9.83;72.40;102591.22;5063211;28;20527;-62
2021/12/14 03:18:57;;;;;;;4.82;3.20;;;;;;;9.83;72.48;102594.75;5064146;28;20102;-62
2021/12/14 03:21:29;;;;;;;4.82;3.40;;;;;;;9.83;72.61;102592.06;5064160;28;20128;-62
2021/12/14 03:24:01;;;;;;;6.55;3.45;;;;;;;9.84;72.58;102576.78;5064318;28;20068;-62
2021/12/14 03:26:32;;;;;;;4.95;3.47;;;;;;;9.84;72.91;102580.31;5067021;28;20072;-61
2021/12/14 03:29:05;;;;;;;5.30;3.58;;;;;;;9.84;72.33;102571.41;5069911;28;20048;-60
2021/12/14 03:31:36;;;;;;;4.47;3.22;;;;;;;9.84;72.33;102574.94;5055914;28;20041;-54
2021/12/14 03:34:08;;;;;;;4.88;3.20;;;;;;;9.84;72.69;102566.88;5064582;28;20510;-60
2021/12/14 03:36:39;;;;;;;5.35;3.53;;;;;;;9.84;72.97;102560.69;5060827;28;20056;-62
2021/12/14 03:39:12;;;;;;;5.68;3.55;;;;;;;9.83;72.48;102564.38;5072316;28;20048;-61
2021/12/14 03:41:44;;;;;;;6.75;3.50;;;;;;;9.84;72.43;102566.06;5068855;28;20044;-61
2021/12/14 03:44:16;;;;;;;4.75;3.13;;;;;;;9.83;72.85;102577.81;5067266;28;20081;-62
2021/12/14 03:46:50;;;;;;;5.65;3.60;;;;;;;9.82;72.72;102565.38;5065273;28;20068;-62
2021/12/14 03:49:19;;;;;;;5.68;3.83;;;;;;;9.81;72.65;102561.88;5073021;28;20292;-62
2021/12/14 03:51:49;;;;;;;4.95;3.33;;;;;;;9.81;72.80;102561.03;5070431;28;20059;-62
2021/12/14 03:54:20;;;;;;;5.72;3.47;;;;;;;9.78;72.95;102570.28;5063868;28;20107;-62
2021/12/14 03:56:48;;;;;;;5.45;3.85;;;;;;;9.77;72.70;102577.50;5073233;28;20484;-61
2021/12/14 03:59:17;;;;;;;6.22;3.28;;;;;;;9.78;72.77;102586.38;5065953;28;20380;-62
2021/12/14 04:01:47;;;;;;;5.10;3.70;;;;;;;9.77;72.93;102609.72;5064347;28;20067;-59
2021/12/14 04:04:20;;;;;;;6.63;4.00;;;;;;;9.78;72.27;102621.28;5057876;28;20410;-61
2021/12/14 04:06:53;;;;;;;6.57;4.00;;;;;;;9.78;72.85;102613.22;5068115;28;20063;-62
2021/12/14 04:09:24;;;;;;;5.90;4.10;;;;;;;9.77;72.68;102617.78;5064863;28;20049;-61
2021/12/14 04:11:52;;;;;;;5.93;4.43;;;;;;;9.75;72.72;102627.00;5064753;28;20084;-62
2021/12/14 04:14:20;;;;;;;6.75;4.32;;;;;;;9.75;72.37;102632.38;5064151;28;20400;-62
2021/12/14 04:16:51;;;;;;;5.72;3.60;;;;;;;9.74;72.47;102639.59;5066753;28;20095;-62
2021/12/14 04:19:25;;;;;;;7.78;4.30;;;;;;;9.73;72.73;102635.22;5064811;28;20073;-61
2021/12/14 04:21:59;;;;;;;6.18;4.07;;;;;;;9.73;72.81;102621.81;5064266;28;20470;-62
2021/12/14 04:24:30;;;;;;;7.15;4.35;;;;;;;9.72;72.70;102621.97;5066613;28;20056;-62
2021/12/14 04:27:01;;;;;;;8.45;4.22;;;;;;;9.63;72.54;102599.69;5062863;28;20077;-61
2021/12/14 04:29:29;;;;;;;8.90;4.85;;;;;;;9.72;72.44;102617.44;5076271;28;20103;-62
2021/12/14 04:31:57;;;;;;;7.07;4.78;;;;;;;9.71;72.90;102617.63;5074461;28;20080;-62
2021/12/14 04:34:25;;;;;;;8.13;4.22;;;;;;;9.72;72.39;102619.28;5065160;28;20044;-62
2021/12/14 04:36:55;;;;;;;7.53;4.95;;;;;;;9.72;72.69;102612.09;5061172;28;20045;-62
2021/12/14 04:39:38;;;;;;;6.88;4.53;;;;;;;9.71;72.49;102613.09;5063237;28;20080;-62
2021/12/14 04:53:35;;;;;;;7.75;5.20;;;;;;;9.70;72.19;102608.72;5049957;28;20085;-62
2021/12/14 04:56:06;;;;;;;9.73;5.70;;;;;;;9.72;72.95;102611.25;5062486;28;20056;-61
2021/12/14 04:58:37;;;;;;;9.57;5.18;;;;;;;9.70;72.24;102603.34;5061847;28;20068;-62
2021/12/14 05:01:08;;;;;;;8.80;5.13;;;;;;;9.71;72.32;102594.28;5061242;28;20083;-62
2021/12/14 05:03:40;;;;;;;8.45;5.60;;;;;;;9.69;72.47;102580.22;5057480;28;20049;-62
2021/12/14 05:06:14;;;;;;;9.18;5.38;;;;;;;9.70;72.34;102579.19;5061721;28;20176;-61
2021/12/14 05:11:32;;;;;;;7.47;5.10;;;;;;;9.69;72.18;102574.84;5059111;28;20053;-62
2021/12/14 05:14:05;;;;;;;10.32;5.35;;;;;;;9.69;72.63;102576.69;5066168;28;20108;-61
2021/12/14 05:16:33;;;;;;;7.85;5.72;;;;;;;9.69;72.71;102584.75;5052602;28;20044;-54
2021/12/14 05:19:24;;;;;;;8.18;5.30;;;;;;;9.68;72.44;102594.63;5065158;28;20065;-57
2021/12/14 05:21:55;;;;;;;9.20;5.10;;;;;;;9.68;72.76;102583.91;5061502;28;20052;-57
2021/12/14 05:24:25;;;;;;;8.52;5.15;;;;;;;9.67;72.96;102589.44;5066354;28;20063;-62
2021/12/14 05:26:57;;;;;;;8.27;6.00;;;;;;;9.67;72.40;102594.81;5064731;28;20132;-59
2021/12/14 05:29:27;;;;;;;9.77;6.13;;;;;;;9.66;72.53;102590.47;5061988;28;20044;-62
2021/12/14 05:31:55;;;;;;;8.63;5.80;;;;;;;9.66;72.46;102593.97;5064593;28;20178;-62
2021/12/14 05:34:24;;;;;;;9.52;5.82;;;;;;;9.65;72.83;102597.66;5062955;28;20067;-62
2021/12/14 05:36:52;;;;;;;10.10;6.85;;;;;;;9.66;72.66;102598.50;5065448;28;20045;-61
2021/12/14 05:39:41;;;;;;;9.95;6.03;;;;;;;9.64;72.62;102598.69;5066402;28;20072;-62
2021/12/14 05:44:56;;;;;;;11.38;5.85;;;;;;;9.61;72.67;102590.97;5065905;28;20080;-62
2021/12/14 05:47:24;;;;;;;8.98;6.13;;;;;;;9.61;72.66;102590.13;5064808;28;20423;-61
2021/12/14 05:49:52;;;;;;;9.18;6.60;;;;;;;9.61;72.94;102590.13;5059072;28;20056;-62
2021/12/14 05:52:24;;;;;;;10.40;7.03;;;;;;;9.60;72.75;102601.88;5068624;28;20174;-61
2021/12/14 05:54:55;;;;;;;10.20;7.50;;;;;;;9.60;72.68;102605.41;5073858;28;20052;-62
2021/12/14 05:57:27;;;;;;;9.82;5.63;;;;;;;9.59;73.17;102597.53;5064413;28;20482;-61
2021/12/14 05:59:56;;;;;;;8.95;6.13;;;;;;;9.60;73.07;102601.88;5065101;28;20049;-61
2021/12/14 06:02:24;;;;;;;9.52;6.82;;;;;;;9.61;72.65;102604.41;5070757;28;20055;-62
2021/12/14 06:04:54;;;;;;;9.82;7.15;;;;;;;9.60;72.37;102604.56;5059593;28;20053;-63
2021/12/14 06:07:24;;;;;;;9.93;6.93;;;;;;;9.59;72.86;102614.47;5066329;28;20049;-62
2021/12/14 06:09:53;;;;;;;8.63;6.28;;;;;;;9.58;72.99;102611.97;5074552;28;20059;-61
2021/12/14 06:12:25;;;;;;;8.85;6.85;;;;;;;9.57;72.71;102611.13;5070275;28;20044;-62
2021/12/14 06:14:55;;;;;;;12.68;7.25;;;;;;;9.55;73.09;102607.75;5064237;28;20045;-62
2021/12/14 06:17:26;;;;;;;10.35;7.43;;;;;;;9.57;72.40;102613.81;5064526;28;20077;-62
2021/12/14 06:19:56;;;;;;;10.30;6.82;;;;;;;9.49;72.96;102605.78;5066854;28;20049;-61
2021/12/14 06:22:25;;;;;;;10.02;6.68;;;;;;;9.58;72.59;102617.31;5070420;28;20048;-64
2021/12/14 06:24:57;;;;;;;9.63;7.50;;;;;;;9.58;72.34;102620.00;5069885;28;20089;-63
2021/12/14 06:27:29;;;;;;;8.65;6.53;;;;;;;9.59;72.95;102627.06;5068940;28;20474;-62
2021/12/14 06:30:00;;;;;;;12.68;7.53;;;;;;;9.59;72.48;102616.31;5068864;28;20055;-59
2021/12/14 06:32:30;;;;;;;10.27;7.60;;;;;;;9.48;72.91;102597.88;5059652;28;20053;-51
2021/12/14 06:35:02;;;;;;;12.05;7.47;;;;;;;9.59;72.37;102624.38;5064150;28;20049;-63
2021/12/14 06:40:45;;;;;;;12.20;8.52;;;;;;;9.57;72.82;102626.38;5009804;28;20049;-61
2021/12/14 06:43:21;;;;;;;10.80;7.63;;;;;;;9.57;72.89;102632.59;4468884;28;10001837;-59
2021/12/14 06:45:55;;;;;;;16.00;8.80;;;;;;;9.58;72.56;102631.59;5006472;28;20084;-61
2021/12/14 06:48:28;;;;;;;12.70;7.93;;;;;;;9.58;72.80;102638.78;5008270;28;20109;-61
2021/12/14 06:51:00;;;;;;;13.45;8.35;;;;;;;9.58;72.99;102636.13;5003764;28;20792;-61
2021/12/14 06:53:28;;;;;;;12.18;8.63;;;;;;;9.59;72.60;102637.78;5018150;28;20160;-62
2021/12/14 06:55:58;;;;;;;9.88;7.40;;;;;;;9.59;72.37;102637.78;5012905;28;20058;-60
2021/12/14 06:58:30;;;;;;;16.05;8.95;;;;;;;9.58;72.71;102638.78;5004881;28;20078;-62
2021/12/14 07:01:05;;;;;;;13.50;7.78;;;;;;;9.57;72.62;102646.00;4998203;28;20073;-63
2021/12/14 07:03:46;;;;;;;15.88;9.52;;;;;;;9.57;72.57;102653.22;5012315;28;20046;-62
2021/12/14 07:06:23;;;;;;;14.60;9.13;;;;;;;9.56;72.93;102651.56;5001873;28;20070;-62
2021/12/14 07:08:50;;;;;;;;;;;;;;;9.56;72.46;102659.59;4998366;28;20112;-64
2021/12/14 07:11:21;;;;;;;12.93;8.48;;;;;;;9.53;72.79;102647.38;4997511;28;19922;-61
2021/12/14 07:13:52;;;;;;;12.63;8.88;;;;;;;9.54;73.00;102657.09;4999882;28;20180;-65
2021/12/14 07:16:30;;;;;;;14.35;9.48;;;;;;;9.53;72.88;102660.78;5043097;28;20192;-64
2021/12/14 07:19:02;;;;;;;13.20;9.23;;;;;;;9.53;72.91;102650.03;5062577;28;20099;-60
2021/12/14 07:21:42;;;;;;;13.77;9.57;;;;;;;9.46;72.77;102649.88;5064098;28;20418;-62
2021/12/14 07:24:30;;;;;;;17.77;9.65;;;;;;;9.53;73.22;102665.31;5056716;28;20045;-62
2021/12/14 07:27:25;;;;;;;13.38;9.10;;;;;;;9.52;72.69;102680.56;5062947;28;20274;-63
2021/12/14 07:30:10;;;;;;;13.85;9.00;;;;;;;9.52;72.32;102679.75;5065575;28;20064;-60
2021/12/14 07:32:41;;;;;;;15.70;9.50;;;;;;;9.52;72.83;102688.63;5064146;28;20059;-67
2021/12/14 07:35:32;;;;;;;16.23;10.15;;;;;;;9.52;73.07;102694.00;5068476;28;20053;-67
2021/12/14 07:38:18;;;;;;;15.25;9.50;;;;;;;9.53;72.45;102693.00;5046673;28;21320;-65
2021/12/14 07:40:48;;;;;;;15.07;9.82;;;;;;;9.53;72.94;102697.53;5062017;28;20048;-67
2021/12/14 07:43:19;;;;;;;14.70;10.45;;;;;;;9.51;72.34;102684.28;5066821;28;20096;-67
2021/12/14 07:45:50;;;;;;;15.88;10.68;;;;;;;9.43;72.88;102679.75;5059990;28;20156;-67
2021/12/14 07:48:19;;;;;;;13.27;9.40;;;;;;;9.50;73.03;102696.00;5053771;28;20049;-68
2021/12/14 07:50:56;;;;;;;15.23;10.32;;;;;;;9.49;73.03;102697.03;5048628;28;20485;-64
2021/12/14 07:53:34;;;;;;;15.52;10.00;;;;;;;9.50;72.92;102712.13;5059499;28;20084;-66
2021/12/14 07:56:02;;;;;;;15.80;9.82;;;;;;;9.59;72.48;102712.94;5064481;28;20084;-65
2021/12/14 07:58:35;;;;;;;16.27;10.57;;;;;;;9.70;72.23;102720.66;5059991;28;20076;-67
2021/12/14 08:01:06;;;;;;;15.85;10.43;;;;;;;9.84;71.87;102727.19;5066839;28;20087;-67
2021/12/14 08:03:34;;;;;;;13.85;10.38;;;;;;;9.98;71.33;102729.16;5058737;28;20124;-67
2021/12/14 08:06:05;;;;;;;15.35;9.85;;;;;;;10.12;70.28;102733.81;5072734;28;20045;-67
2021/12/14 08:08:42;;;;;;;16.98;10.30;;;;;;;10.26;70.40;102727.75;5053285;28;20044;-67
2021/12/14 08:11:47;;;;;;;16.55;9.88;;;;;;;10.40;69.28;102732.38;5059310;28;20053;-68
2021/12/14 08:14:23;;;;;;;14.32;9.80;;;;;;;10.59;69.03;102730.28;5061779;28;20087;-68
2021/12/14 08:17:00;;;;;;;14.20;10.38;;;;;;;10.70;68.20;102730.72;5060668;28;20056;-67
2021/12/14 08:19:35;;;;;;;15.98;10.30;;;;;;;10.81;68.18;102729.47;5052923;28;20384;-68
2021/12/14 08:22:13;;;;;;;14.90;10.10;;;;;;;10.92;67.72;102725.53;5061540;28;20045;-68
2021/12/14 08:24:49;;;;;;;14.27;9.68;;;;;;;10.98;67.34;102719.44;5042529;28;20163;-68
2021/12/14 08:27:20;;;;;;;14.15;10.20;;;;;;;11.03;67.55;102725.13;5058565;28;20422;-68
2021/12/14 08:29:52;;;;;;;16.27;9.95;;;;;;;10.93;67.35;102725.38;5059975;28;20052;-67
2021/12/14 08:32:25;;;;;;;14.27;9.82;;;;;;;10.82;67.85;102727.63;5055918;28;20371;-68
2021/12/14 08:34:56;;;;;;;16.23;10.65;;;;;;;10.69;68.49;102722.81;5060125;28;20060;-67
2021/12/14 08:37:33;;;;;;;15.27;9.48;;;;;;;10.55;68.89;102729.78;5065187;28;20095;-67
2021/12/14 08:40:07;;;;;;;13.27;9.63;;;;;;;10.42;69.58;102727.66;5065900;28;20619;-67
2021/12/14 08:42:45;;;;;;;14.07;9.93;;;;;;;10.34;69.97;102729.56;5067548;28;20048;-68
2021/12/14 08:45:26;;;;;;;15.18;10.43;;;;;;;10.24;70.28;102724.41;5065618;28;20080;-68
2021/12/14 08:48:06;;;;;;;16.40;10.93;;;;;;;10.19;70.46;102731.28;5062283;28;20047;-66
2021/12/14 08:50:38;;;;;;;15.25;10.68;;;;;;;10.15;70.83;102735.31;5076977;28;20072;-67
2021/12/14 08:53:09;;;;;;;13.77;10.00;;;;;;;10.10;70.89;102738.53;5065311;28;20083;-67
2021/12/14 08:55:43;;;;;;;15.05;10.60;;;;;;;10.07;70.95;102736.19;5065328;28;20095;-67
2021/12/14 08:58:13;;;;;;;14.40;10.43;;;;;;;10.02;70.86;102735.88;5053867;28;20116;-67
2021/12/14 09:00:45;;;;;;;16.13;11.23;;;;;;;9.98;71.39;102740.75;5065383;28;20087;-68
2021/12/14 09:03:23;;;;;;;16.02;10.60;;;;;;;9.93;71.49;102744.94;5065360;28;20063;-67
2021/12/14 09:05:52;;;;;;;16.85;11.20;;;;;;;9.88;71.51;102745.47;5065480;28;20045;-69
2021/12/14 09:08:22;;;;;;;17.35;11.75;;;;;;;9.76;71.74;102723.50;5060038;28;20072;-67
2021/12/14 09:10:54;;;;;;;16.35;10.82;;;;;;;9.85;71.98;102747.66;5065192;28;20068;-67
2021/12/14 09:13:22;;;;;;;16.25;10.85;;;;;;;9.82;71.55;102748.00;5077038;28;20048;-67
2021/12/14 09:15:52;;;;;;;15.77;11.30;;;;;;;9.80;72.20;102748.16;5067149;28;20048;-67
2021/12/14 09:18:23;;;;;;;17.65;11.60;;;;;;;9.81;72.23;102759.75;5076020;28;20045;-67
2021/12/14 09:20:54;;;;;;;17.45;11.02;;;;;;;9.77;71.93;102753.88;5065148;28;20049;-67
2021/12/14 09:23:27;;;;;;;14.55;10.73;;;;;;;9.76;72.35;102754.88;5058366;28;20049;-67
2021/12/14 09:25:56;;;;;;;20.52;12.68;;;;;;;9.75;72.14;102753.19;5055034;28;20080;-65
2021/12/14 09:28:26;;;;;;;16.10;11.07;;;;;;;9.74;71.98;102751.53;5062852;28;20060;-67
2021/12/14 09:30:57;;;;;;;17.35;11.98;;;;;;;9.73;71.91;102752.53;5057375;28;20080;-68
2021/12/14 09:33:28;;;;;;;17.98;11.77;;;;;;;9.72;72.69;102753.53;5060300;28;20106;-68
2021/12/14 09:35:57;;;;;;;18.20;11.93;;;;;;;9.72;71.95;102761.59;5064881;28;20060;-66
2021/12/14 09:38:32;;;;;;;17.55;11.77;;;;;;;9.71;72.27;102755.38;5064574;28;20081;-66
2021/12/14 09:41:04;;;;;;;15.80;11.25;;;;;;;9.71;72.24;102759.91;5056252;28;20048;-67
2021/12/14 09:43:34;;;;;;;16.45;11.27;;;;;;;9.70;72.28;102756.41;5053188;28;20394;-66
2021/12/14 09:46:04;;;;;;;20.65;12.65;;;;;;;9.69;72.14;102748.50;5060276;28;20188;-67
2021/12/14 09:48:38;;;;;;;18.98;12.18;;;;;;;9.70;72.19;102758.25;5060790;28;20063;-67
2021/12/14 09:51:10;;;;;;;18.83;11.90;;;;;;;9.68;72.80;102758.41;5054694;28;20053;-67
2021/12/14 09:53:45;;;;;;;19.17;12.00;;;;;;;9.68;72.88;102750.34;5063367;28;20053;-67
2021/12/14 09:56:14;;;;;;;17.48;11.43;;;;;;;9.69;72.28;102748.50;5074621;28;20049;-65
2021/12/14 09:58:47;;;;;;;24.40;13.38;;;;;;;9.68;72.76;102747.66;5064056;28;20051;-61
2021/12/14 10:01:20;;;;;;;18.02;11.70;;;;;;;9.71;73.09;102746.50;5051272;28;20052;-61
2021/12/14 10:03:59;;;;;;;18.15;12.77;;;;;;;9.70;72.82;102742.97;5060193;28;20056;-56
2021/12/14 10:06:31;;;;;;;16.77;11.38;;;;;;;9.74;72.19;102735.41;5062282;28;20072;-61
2021/12/14 10:09:04;;;;;;;19.65;12.80;;;;;;;9.84;71.81;102733.38;5058678;28;20052;-61
2021/12/14 10:11:43;;;;;;;17.98;12.40;;;;;;;10.01;71.43;102729.66;5063579;28;20074;-57
2021/12/14 10:14:13;;;;;;;18.35;12.65;;;;;;;10.15;71.11;102730.78;5064097;28;20049;-61
2021/12/14 10:16:41;;;;;;;15.90;10.63;;;;;;;10.28;70.37;102731.13;5074859;28;20083;-61
2021/12/14 10:19:13;;;;;;;17.15;10.95;;;;;;;10.43;70.18;102728.50;5057811;28;20247;-61
2021/12/14 10:21:45;;;;;;;19.45;12.07;;;;;;;10.57;69.29;102732.31;5068752;28;20071;-61
2021/12/14 10:24:12;;;;;;;17.23;11.35;;;;;;;10.58;69.20;102726.75;5065093;28;20056;-61
2021/12/14 10:26:44;;;;;;;17.13;11.00;;;;;;;10.55;69.51;102734.31;5063236;28;20041;-62
2021/12/14 10:29:12;;;;;;;17.38;11.30;;;;;;;10.49;69.56;102726.97;5061254;28;20466;-61
2021/12/14 10:31:43;;;;;;;18.23;11.55;;;;;;;10.39;70.40;102736.09;5062492;28;20055;-61
2021/12/14 10:34:18;;;;;;;19.70;12.30;;;;;;;10.33;70.27;102744.03;5063620;28;20048;-61
2021/12/14 10:36:50;;;;;;;17.20;11.43;;;;;;;10.24;70.78;102739.69;5062200;28;20083;-61
2021/12/14 10:39:36;;;;;;;19.60;11.75;;;;;;;10.21;70.89;102745.41;5065674;28;20154;-60
2021/12/14 10:44:55;;;;;;;18.40;12.60;;;;;;;10.13;71.71;102743.56;5063394;28;20053;-61
2021/12/14 10:47:27;;;;;;;18.42;12.63;;;;;;;10.10;71.76;102751.97;5062889;28;20072;-61
2021/12/14 10:49:57;;;;;;;19.75;12.88;;;;;;;10.08;71.74;102756.66;5059465;28;20115;-56
2021/12/14 10:52:28;;;;;;;20.60;13.02;;;;;;;10.05;71.95;102757.00;5054523;28;20065;-60
2021/12/14 10:55:08;;;;;;;21.70;14.73;;;;;;;10.02;71.82;102755.50;5057726;28;20044;-61
2021/12/14 10:57:37;;;;;;;24.15;13.07;;;;;;;10.00;72.07;102749.47;5060068;28;20056;-66
2021/12/14 11:00:09;;;;;;;20.85;12.75;;;;;;;9.98;72.61;102748.81;5062563;28;20087;-67
2021/12/14 11:02:41;;;;;;;22.85;14.80;;;;;;;9.96;72.04;102745.44;5056448;28;20057;-67
2021/12/14 11:05:17;;;;;;;24.35;14.40;;;;;;;9.96;72.50;102742.75;5060114;28;20044;-67
2021/12/14 11:07:47;;;;;;;20.02;13.30;;;;;;;9.93;72.25;102742.25;5074694;28;20063;-67
2021/12/14 11:10:20;;;;;;;21.08;13.65;;;;;;;9.84;72.47;102721.81;5063160;28;20126;-67
2021/12/14 11:12:53;;;;;;;21.95;14.45;;;;;;;9.91;72.38;102736.22;5061960;28;20048;-68
2021/12/14 11:15:24;;;;;;;24.60;15.32;;;;;;;9.91;72.67;102738.91;5061727;28;20422;-67
2021/12/14 11:18:11;;;;;;;20.55;13.98;;;;;;;9.89;72.83;102746.31;5051029;28;20085;-67
2021/12/14 11:20:45;;;;;;;20.77;13.88;;;;;;;9.89;72.99;102735.56;5058136;28;20041;-68
2021/12/14 11:23:18;;;;;;;24.80;14.32;;;;;;;9.90;73.02;102734.53;5066701;28;20045;-68
2021/12/14 11:25:54;;;;;;;25.05;15.50;;;;;;;9.90;72.73;102723.81;5060493;28;20147;-67
2021/12/14 11:28:31;;;;;;;20.08;12.88;;;;;;;9.90;72.81;102721.13;5070973;28;20041;-68
2021/12/14 11:31:03;;;;;;;24.55;15.45;;;;;;;9.90;73.33;102719.28;5062377;28;20056;-67
2021/12/14 11:33:34;;;;;;;23.92;14.50;;;;;;;9.90;72.89;102716.59;5059988;28;20053;-67
2021/12/14 11:36:12;;;;;;;21.33;14.13;;;;;;;9.90;72.94;102719.28;5046420;28;20076;-68
2021/12/14 11:38:43;;;;;;;23.50;14.52;;;;;;;9.89;73.07;102714.91;5058762;28;20041;-67
2021/12/14 11:41:47;;;;;;;22.02;14.18;;;;;;;9.91;73.00;102712.06;5062314;28;20060;-62
2021/12/14 11:44:20;;;;;;;25.27;15.10;;;;;;;9.90;73.42;102705.84;5019986;28;20065;-67
2021/12/14 11:46:57;;;;;;;25.83;15.85;;;;;;;9.91;73.41;102715.56;5011820;28;20054;-67
2021/12/14 11:49:39;;;;;;;23.73;14.77;;;;;;;9.82;73.17;102695.13;5005835;28;20058;-67
2021/12/14 11:52:10;;;;;;;25.50;15.38;;;;;;;9.91;73.33;102710.22;5014524;28;20616;-67
2021/12/14 11:54:44;;;;;;;22.75;14.40;;;;;;;9.91;73.45;102714.75;5005665;28;20058;-68
2021/12/14 11:57:14;;;;;;;22.08;14.45;;;;;;;9.91;73.21;102712.06;5017267;28;20116;-67
2021/12/14 11:59:42;;;;;;;20.90;13.27;;;;;;;9.91;73.11;102712.88;5018205;28;20148;-66
2021/12/14 12:02:11;;;;;;;22.17;15.07;;;;;;;9.92;73.52;102719.09;5025270;28;20092;-67
2021/12/14 12:04:44;;;;;;;23.75;15.27;;;;;;;9.91;73.51;102707.53;5017799;28;20065;-67
2021/12/14 12:10:06;;;;;;;21.92;14.98;;;;;;;10.10;73.04;102712.50;5016409;28;20064;-67
2021/12/14 12:12:37;;;;;;;23.77;15.50;;;;;;;10.24;72.11;102708.28;5018463;28;20119;-67
2021/12/14 12:15:09;;;;;;;19.80;13.27;;;;;;;10.40;71.78;102708.19;5012267;28;20074;-67